Time;durP1;ratioP1;P1;durP2;ratioP2;P2;SDS_P1;SDS_P2;PMS_P1;PMS_P2;Temp;Humidity;BMP_temperature;BMP_pressure;BME280_temperature;BME280_humidity;BME280_pressure;Samples;Min_cycle;Max_cycle;Signal;HPM_P1;HPM_P2
2022/06/11 00:00:49;;;;;;;11.13;4.32;;;;;;;;;;4980043;28;20040;-88
2022/06/11 00:03:15;;;;;;;9.90;4.60;;;;;;;;;;4967305;28;20514;-88
2022/06/11 00:05:41;;;;;;;14.27;4.85;;;;;;;;;;4965702;28;20121;-89
2022/06/11 00:08:08;;;;;;;10.27;4.78;;;;;;;;;;4972333;28;20178;-89
2022/06/11 00:10:34;;;;;;;11.52;4.55;;;;;;;;;;4973483;28;20057;-89
2022/06/11 00:13:00;;;;;;;13.88;5.35;;;;;;;;;;4973265;28;20312;-89
2022/06/11 00:15:26;;;;;;;9.40;4.57;;;;;;;;;;4972927;28;20599;-89
2022/06/11 00:17:52;;;;;;;10.05;4.53;;;;;;;;;;4984926;28;20041;-89
2022/06/11 00:20:19;;;;;;;17.30;5.53;;;;;;;;;;4975845;28;20121;-88
2022/06/11 00:22:45;;;;;;;13.73;4.97;;;;;;;;;;4988579;28;20046;-88
2022/06/11 00:25:11;;;;;;;9.57;5.13;;;;;;;;;;4971755;28;20039;-88
2022/06/11 00:27:38;;;;;;;11.57;5.03;;;;;;;;;;4973663;28;20035;-89
2022/06/11 00:30:05;;;;;;;12.25;5.10;;;;;;;;;;4988146;28;20177;-89
2022/06/11 00:32:37;;;;;;;12.77;5.15;;;;;;;;;;4971257;28;20507;-88
2022/06/11 00:35:04;;;;;;;12.98;5.38;;;;;;;;;;4973239;28;20026;-89
2022/06/11 00:37:30;;;;;;;9.60;5.38;;;;;;;;;;4985747;28;20030;-88
2022/06/11 00:39:56;;;;;;;12.23;5.15;;;;;;;;;;4972979;28;20478;-89
2022/06/11 00:42:24;;;;;;;12.77;5.85;;;;;;;;;;4971695;28;20556;-89
2022/06/11 00:45:12;;;;;;;9.73;5.57;;;;;;;;;;4975044;28;20504;-89
2022/06/11 00:47:38;;;;;;;16.00;4.95;;;;;;;;;;4989298;28;20536;-89
2022/06/11 00:50:14;;;;;;;14.00;5.40;;;;;;;;;;4969618;28;20030;-90
2022/06/11 00:52:40;;;;;;;;;;;;;;;;;;4985454;28;20089;-89
2022/06/11 00:55:15;;;;;;;10.85;4.88;;;;;;;;;;4971094;28;19937;-88
2022/06/11 00:57:57;;;;;;;14.77;4.28;;;;;;;;;;4969249;28;20072;-88
2022/06/11 01:00:28;;;;;;;9.05;4.05;;;;;;;;;;4965869;28;20272;-89
2022/06/11 01:02:54;;;;;;;12.43;4.28;;;;;;;;;;4987088;28;20034;-88
2022/06/11 01:05:23;;;;;;;12.10;3.75;;;;;;;;;;4975601;28;20041;-88
2022/06/11 01:08:08;;;;;;;14.63;4.20;;;;;;;;;;4990665;28;20030;-88
2022/06/11 01:10:53;;;;;;;14.38;4.32;;;;;;;;;;4970688;28;20039;-89
2022/06/11 01:13:19;;;;;;;12.95;3.80;;;;;;;;;;4970572;28;20033;-88
2022/06/11 01:15:56;;;;;;;16.33;4.22;;;;;;;;;;4970082;28;20030;-90
2022/06/11 01:18:32;;;;;;;12.27;3.38;;;;;;;;;;4971703;28;20504;-89
2022/06/11 01:21:01;;;;;;;10.23;3.90;;;;;;;;;;4961653;28;20221;-88
2022/06/11 01:23:40;;;;;;;10.02;3.53;;;;;;;;;;4968299;28;20073;-89
2022/06/11 01:26:18;;;;;;;25.52;4.25;;;;;;;;;;4962816;28;20522;-89
2022/06/11 01:28:44;;;;;;;13.15;3.10;;;;;;;;;;4983164;28;20027;-89
2022/06/11 01:31:28;;;;;;;11.43;3.80;;;;;;;;;;4966627;28;20065;-88
2022/06/11 01:34:04;;;;;;;17.40;3.28;;;;;;;;;;4985827;28;20031;-88
2022/06/11 01:36:34;;;;;;;7.63;2.72;;;;;;;;;;4964455;28;20615;-88
2022/06/11 01:39:04;;;;;;;11.07;2.88;;;;;;;;;;4969834;28;20560;-89
2022/06/11 01:41:36;;;;;;;14.40;2.88;;;;;;;;;;4984873;28;20028;-89
2022/06/11 01:44:06;;;;;;;15.57;3.17;;;;;;;;;;4964647;28;20050;-88
2022/06/11 01:46:35;;;;;;;9.75;2.35;;;;;;;;;;4971540;28;20383;-88
2022/06/11 01:49:07;;;;;;;13.32;2.95;;;;;;;;;;4968305;28;20569;-89
2022/06/11 01:51:46;;;;;;;11.35;3.25;;;;;;;;;;4964590;28;20018;-89
2022/06/11 01:54:19;;;;;;;13.43;3.10;;;;;;;;;;4971508;28;20038;-89
2022/06/11 01:57:04;;;;;;;8.15;2.50;;;;;;;;;;4977471;28;20101;-88
2022/06/11 01:59:53;;;;;;;14.18;2.85;;;;;;;;;;4970875;28;20482;-88
2022/06/11 02:02:19;;;;;;;12.95;2.83;;;;;;;;;;4968623;28;20470;-88
2022/06/11 02:04:53;;;;;;;17.30;2.75;;;;;;;;;;4987766;28;20030;-88
2022/06/11 02:07:29;;;;;;;12.75;2.80;;;;;;;;;;4969927;28;20544;-88
2022/06/11 02:10:14;;;;;;;10.90;3.20;;;;;;;;;;4973085;28;20026;-89
2022/06/11 02:12:49;;;;;;;18.77;3.35;;;;;;;;;;4968430;28;20404;-88
2022/06/11 02:15:28;;;;;;;13.48;2.45;;;;;;;;;;4967591;28;20505;-88
2022/06/11 02:17:56;;;;;;;8.23;2.88;;;;;;;;;;4988960;28;20072;-89
2022/06/11 02:20:42;;;;;;;9.98;2.60;;;;;;;;;;4989769;28;20505;-89
2022/06/11 02:23:12;;;;;;;7.95;2.53;;;;;;;;;;4968049;28;20545;-89
2022/06/11 02:25:45;;;;;;;13.73;2.83;;;;;;;;;;4964477;28;20030;-89
2022/06/11 02:28:13;;;;;;;12.10;2.10;;;;;;;;;;4968177;28;20031;-89
2022/06/11 02:30:41;;;;;;;16.42;2.92;;;;;;;;;;4970412;28;20037;-89
2022/06/11 02:33:11;;;;;;;11.05;3.38;;;;;;;;;;4972352;28;20034;-88
2022/06/11 02:35:39;;;;;;;12.32;3.08;;;;;;;;;;4965012;28;20023;-88
2022/06/11 02:38:06;;;;;;;13.23;2.47;;;;;;;;;;4970713;28;20505;-89
2022/06/11 02:40:39;;;;;;;15.65;3.05;;;;;;;;;;4980283;28;20084;-88
2022/06/11 02:43:05;;;;;;;12.05;2.30;;;;;;;;;;4973244;28;20038;-88
2022/06/11 02:45:31;;;;;;;10.90;2.53;;;;;;;;;;4971873;28;20465;-89
2022/06/11 02:47:57;;;;;;;10.93;2.63;;;;;;;;;;4962879;28;20052;-88
2022/06/11 02:50:27;;;;;;;15.15;3.00;;;;;;;;;;4970904;28;20035;-88
2022/06/11 02:53:00;;;;;;;8.13;2.22;;;;;;;;;;4971994;28;20462;-89
2022/06/11 02:55:26;;;;;;;12.38;2.45;;;;;;;;;;4981387;28;20110;-88
2022/06/11 02:57:52;;;;;;;16.25;2.97;;;;;;;;;;4968791;28;20025;-89
2022/06/11 03:00:20;;;;;;;9.45;2.42;;;;;;;;;;4967313;28;20121;-89
2022/06/11 03:02:48;;;;;;;14.35;2.50;;;;;;;;;;4973188;28;20053;-88
2022/06/11 03:05:16;;;;;;;16.55;2.47;;;;;;;;;;4980596;28;20090;-89
2022/06/11 03:07:43;;;;;;;11.35;2.65;;;;;;;;;;4967884;28;20041;-88
2022/06/11 03:10:09;;;;;;;8.57;2.38;;;;;;;;;;4970409;28;20042;-89
2022/06/11 03:12:35;;;;;;;7.88;2.45;;;;;;;;;;4972409;28;20034;-88
2022/06/11 03:15:02;;;;;;;15.70;2.92;;;;;;;;;;4966257;28;20401;-88
2022/06/11 03:17:28;;;;;;;12.15;2.55;;;;;;;;;;4970690;28;20387;-88
2022/06/11 03:19:54;;;;;;;11.65;2.47;;;;;;;;;;4959580;28;20031;-88
2022/06/11 03:22:20;;;;;;;12.05;2.70;;;;;;;;;;4971326;28;20033;-88
2022/06/11 03:24:47;;;;;;;15.55;3.38;;;;;;;;;;4970563;28;20145;-88
2022/06/11 03:27:15;;;;;;;11.65;3.03;;;;;;;;;;4970230;28;20124;-88
2022/06/11 03:29:42;;;;;;;8.57;3.28;;;;;;;;;;4984470;28;20038;-88
2022/06/11 03:32:08;;;;;;;17.65;3.15;;;;;;;;;;4967612;28;20046;-89
2022/06/11 03:34:35;;;;;;;9.23;2.85;;;;;;;;;;4967354;28;20131;-88
2022/06/11 03:37:01;;;;;;;13.10;2.80;;;;;;;;;;4968693;28;20045;-88
2022/06/11 03:39:27;;;;;;;12.93;3.58;;;;;;;;;;4969137;28;20121;-89
2022/06/11 03:41:54;;;;;;;10.63;3.45;;;;;;;;;;4966439;28;20043;-88
2022/06/11 03:44:20;;;;;;;13.95;3.10;;;;;;;;;;4969551;28;20023;-89
2022/06/11 03:46:46;;;;;;;9.20;3.17;;;;;;;;;;4971811;28;20038;-88
2022/06/11 03:49:13;;;;;;;11.95;3.55;;;;;;;;;;4973537;28;20449;-89
2022/06/11 03:51:40;;;;;;;14.80;2.97;;;;;;;;;;4985735;28;20029;-88
2022/06/11 03:54:12;;;;;;;8.27;3.13;;;;;;;;;;4986915;28;20121;-88
2022/06/11 03:56:39;;;;;;;20.10;3.10;;;;;;;;;;4973032;28;20490;-88
2022/06/11 03:59:05;;;;;;;14.63;3.00;;;;;;;;;;4987515;28;20038;-88
2022/06/11 04:01:31;;;;;;;15.80;3.60;;;;;;;;;;4971375;28;20073;-89
2022/06/11 04:03:59;;;;;;;13.88;4.03;;;;;;;;;;4974513;28;20605;-89
2022/06/11 04:06:27;;;;;;;17.00;4.00;;;;;;;;;;4992530;28;20028;-88
2022/06/11 04:08:53;;;;;;;10.88;3.25;;;;;;;;;;4971207;28;20026;-88
2022/06/11 04:11:20;;;;;;;17.45;3.30;;;;;;;;;;4975898;28;20497;-88
2022/06/11 04:13:46;;;;;;;10.27;3.70;;;;;;;;;;4966789;28;20038;-88
2022/06/11 04:16:24;;;;;;;11.23;3.22;;;;;;;;;;4979845;28;20096;-88
2022/06/11 04:18:50;;;;;;;18.83;3.42;;;;;;;;;;4966789;28;20027;-88
2022/06/11 04:21:17;;;;;;;16.33;3.97;;;;;;;;;;4977289;28;20022;-89
2022/06/11 04:23:45;;;;;;;20.73;3.17;;;;;;;;;;4985378;28;20121;-88
2022/06/11 04:26:13;;;;;;;14.00;3.30;;;;;;;;;;4973156;28;20137;-88
2022/06/11 04:28:39;;;;;;;17.02;3.20;;;;;;;;;;4969550;28;20034;-88
2022/06/11 04:31:06;;;;;;;12.48;3.42;;;;;;;;;;4973984;28;20038;-88
2022/06/11 04:33:33;;;;;;;17.50;3.08;;;;;;;;;;4969757;28;20030;-88
2022/06/11 04:35:59;;;;;;;22.95;3.97;;;;;;;;;;4986377;28;20488;-88
2022/06/11 04:38:25;;;;;;;12.93;3.33;;;;;;;;;;4973856;28;20034;-88
2022/06/11 04:40:52;;;;;;;13.77;3.17;;;;;;;;;;4974452;28;20091;-88
2022/06/11 04:43:18;;;;;;;20.67;4.47;;;;;;;;;;4972029;28;20424;-88
2022/06/11 04:45:44;;;;;;;17.52;4.13;;;;;;;;;;4967467;28;20037;-87
2022/06/11 04:48:10;;;;;;;15.73;2.60;;;;;;;;;;4989693;28;20041;-87
2022/06/11 04:50:37;;;;;;;13.55;3.45;;;;;;;;;;4971590;28;20038;-88
2022/06/11 04:53:03;;;;;;;17.42;2.92;;;;;;;;;;4969613;28;20568;-87
2022/06/11 04:55:30;;;;;;;15.20;2.80;;;;;;;;;;4983099;28;20031;-87
2022/06/11 04:57:56;;;;;;;22.25;3.80;;;;;;;;;;4973183;28;20965;-87
2022/06/11 05:00:24;;;;;;;13.20;3.80;;;;;;;;;;4983302;28;20031;-91
2022/06/11 05:02:50;;;;;;;17.52;3.17;;;;;;;;;;4986936;28;20438;-90
2022/06/11 05:05:17;;;;;;;21.20;3.42;;;;;;;;;;4971943;28;20096;-92
2022/06/11 05:07:43;;;;;;;11.73;2.22;;;;;;;;;;4974302;28;20487;-91
2022/06/11 05:10:11;;;;;;;12.77;2.90;;;;;;;;;;4967577;28;20179;-91
2022/06/11 05:12:37;;;;;;;14.95;3.17;;;;;;;;;;4972447;28;20029;-87
2022/06/11 05:15:04;;;;;;;13.45;3.88;;;;;;;;;;4972682;28;20228;-87
2022/06/11 05:17:30;;;;;;;11.75;3.00;;;;;;;;;;4991816;28;20030;-88
2022/06/11 05:19:56;;;;;;;15.57;3.10;;;;;;;;;;4975821;28;20096;-88
2022/06/11 05:22:22;;;;;;;8.10;2.85;;;;;;;;;;4973302;28;20050;-88
2022/06/11 05:24:48;;;;;;;19.85;3.28;;;;;;;;;;4974739;28;20080;-88
2022/06/11 05:27:19;;;;;;;19.92;3.70;;;;;;;;;;4973519;28;20046;-87
2022/06/11 05:29:47;;;;;;;17.88;3.67;;;;;;;;;;4971601;28;20053;-88
2022/06/11 05:32:14;;;;;;;10.88;2.95;;;;;;;;;;4970184;28;20076;-88
2022/06/11 05:34:41;;;;;;;16.30;3.90;;;;;;;;;;4993134;28;20080;-88
2022/06/11 05:37:07;;;;;;;20.25;3.30;;;;;;;;;;4971166;28;20037;-87
2022/06/11 05:39:33;;;;;;;21.73;3.63;;;;;;;;;;4970209;28;20350;-88
2022/06/11 05:41:59;;;;;;;20.30;4.35;;;;;;;;;;4981096;28;20562;-88
2022/06/11 05:44:25;;;;;;;12.43;3.95;;;;;;;;;;4970650;28;20027;-88
2022/06/11 05:46:52;;;;;;;10.30;2.30;;;;;;;;;;4971106;28;20032;-88
2022/06/11 05:49:21;;;;;;;20.45;4.30;;;;;;;;;;4971572;28;20084;-88
2022/06/11 05:51:49;;;;;;;18.67;4.80;;;;;;;;;;4984505;28;20402;-88
2022/06/11 05:54:18;;;;;;;19.48;4.22;;;;;;;;;;4966106;28;20045;-88
2022/06/11 05:56:44;;;;;;;20.90;4.53;;;;;;;;;;4987750;28;20026;-88
2022/06/11 05:59:15;;;;;;;15.23;3.33;;;;;;;;;;4988488;28;20030;-88
2022/06/11 06:01:42;;;;;;;23.67;3.75;;;;;;;;;;4967780;28;20030;-88
2022/06/11 06:04:08;;;;;;;30.73;5.47;;;;;;;;;;4986281;28;20065;-88
2022/06/11 06:06:34;;;;;;;17.27;3.75;;;;;;;;;;4977418;28;20018;-88
2022/06/11 06:09:01;;;;;;;15.05;4.05;;;;;;;;;;4969016;28;20470;-88
2022/06/11 06:11:28;;;;;;;14.18;3.60;;;;;;;;;;4982524;28;20609;-89
2022/06/11 06:13:56;;;;;;;20.40;4.40;;;;;;;;;;4973986;28;20114;-88
2022/06/11 06:16:23;;;;;;;20.30;4.05;;;;;;;;;;4970955;28;20080;-89
2022/06/11 06:18:50;;;;;;;14.82;5.35;;;;;;;;;;4967930;28;20437;-88
2022/06/11 06:21:17;;;;;;;15.43;3.60;;;;;;;;;;4970368;28;20045;-89
2022/06/11 06:23:43;;;;;;;19.10;4.15;;;;;;;;;;4980075;28;20038;-88
2022/06/11 06:26:09;;;;;;;15.55;3.95;;;;;;;;;;4963580;28;20486;-88
2022/06/11 06:28:35;;;;;;;21.75;5.10;;;;;;;;;;4982845;28;20033;-89
2022/06/11 06:31:03;;;;;;;24.83;4.60;;;;;;;;;;4959808;28;20054;-88
2022/06/11 06:33:30;;;;;;;17.20;4.22;;;;;;;;;;4969398;28;20544;-88
2022/06/11 06:35:57;;;;;;;15.75;4.40;;;;;;;;;;4987989;28;20036;-88
2022/06/11 06:38:23;;;;;;;21.13;4.10;;;;;;;;;;4969532;28;20111;-89
2022/06/11 06:40:49;;;;;;;21.98;4.30;;;;;;;;;;4985336;28;20057;-88
2022/06/11 06:43:15;;;;;;;24.95;5.38;;;;;;;;;;4973543;28;20034;-87
2022/06/11 06:45:41;;;;;;;31.90;6.35;;;;;;;;;;4970262;28;20033;-90
2022/06/11 06:48:07;;;;;;;20.77;4.18;;;;;;;;;;4987146;28;20279;-92
2022/06/11 06:50:40;;;;;;;32.17;5.40;;;;;;;;;;4969934;28;20030;-91
2022/06/11 06:53:06;;;;;;;27.05;7.18;;;;;;;;;;4982742;28;20433;-91
2022/06/11 06:55:32;;;;;;;20.15;4.88;;;;;;;;;;4987345;28;20049;-91
2022/06/11 06:57:58;;;;;;;33.58;5.57;;;;;;;;;;4969650;28;20394;-92
2022/06/11 07:00:24;;;;;;;27.27;5.88;;;;;;;;;;4975158;28;20409;-91
2022/06/11 07:02:53;;;;;;;27.02;5.85;;;;;;;;;;4972337;28;20041;-91
2022/06/11 07:05:20;;;;;;;17.30;4.38;;;;;;;;;;4972357;28;20034;-89
2022/06/11 07:07:47;;;;;;;26.80;3.95;;;;;;;;;;4962858;28;20038;-89
2022/06/11 07:10:13;;;;;;;29.33;5.13;;;;;;;;;;4975215;28;20057;-88
2022/06/11 07:12:39;;;;;;;22.90;5.72;;;;;;;;;;4983673;28;20040;-91
2022/06/11 07:15:12;;;;;;;15.13;3.83;;;;;;;;;;4971131;28;20053;-89
2022/06/11 07:17:41;;;;;;;14.80;3.53;;;;;;;;;;4968716;28;20029;-89
2022/06/11 07:20:08;;;;;;;20.02;4.85;;;;;;;;;;4966810;28;20413;-89
2022/06/11 07:22:39;;;;;;;34.33;5.32;;;;;;;;;;4974831;28;20529;-88
2022/06/11 07:25:06;;;;;;;24.58;5.15;;;;;;;;;;4966869;28;20101;-88
2022/06/11 07:27:34;;;;;;;22.73;4.63;;;;;;;;;;4990139;28;20145;-89
2022/06/11 07:30:03;;;;;;;26.92;5.40;;;;;;;;;;4987614;28;20348;-88
2022/06/11 07:32:35;;;;;;;20.60;4.97;;;;;;;;;;4967684;28;20055;-89
2022/06/11 07:35:05;;;;;;;27.77;5.20;;;;;;;;;;4973436;28;20026;-89
2022/06/11 07:37:33;;;;;;;18.98;4.43;;;;;;;;;;4984865;28;20030;-88
2022/06/11 07:39:59;;;;;;;26.20;4.18;;;;;;;;;;4976058;28;20034;-89
2022/06/11 07:42:25;;;;;;;19.52;4.25;;;;;;;;;;4972048;28;20044;-89
2022/06/11 07:44:51;;;;;;;23.05;4.70;;;;;;;;;;4973617;28;20421;-88
2022/06/11 07:47:53;;;;;;;29.30;4.82;;;;;;;;;;4966082;28;20421;-88
2022/06/11 07:50:06;;;;;;;23.02;4.18;;;;;;;;;;4982631;28;20124;-89
2022/06/11 07:52:32;;;;;;;17.58;4.25;;;;;;;;;;4970391;28;20339;-89
2022/06/11 07:54:58;;;;;;;13.10;3.67;;;;;;;;;;4972226;28;20062;-89
2022/06/11 07:57:25;;;;;;;26.85;4.97;;;;;;;;;;4968562;28;20117;-88
2022/06/11 07:59:51;;;;;;;26.95;4.95;;;;;;;;;;4974656;28;20711;-89
2022/06/11 08:02:17;;;;;;;22.38;4.60;;;;;;;;;;4962077;28;20026;-89
2022/06/11 08:04:43;;;;;;;29.52;7.07;;;;;;;;;;4974303;28;20066;-89
2022/06/11 08:07:09;;;;;;;26.27;4.95;;;;;;;;;;4987744;28;20062;-89
2022/06/11 08:09:35;;;;;;;23.83;5.63;;;;;;;;;;4990972;28;20061;-89
2022/06/11 08:12:01;;;;;;;21.50;4.18;;;;;;;;;;4973758;28;20050;-88
2022/06/11 08:14:27;;;;;;;22.70;4.07;;;;;;;;;;4983901;28;20026;-88
2022/06/11 08:16:53;;;;;;;17.27;3.78;;;;;;;;;;4980074;28;20450;-89
2022/06/11 08:19:19;;;;;;;25.50;4.63;;;;;;;;;;4978361;28;20022;-89
2022/06/11 08:21:45;;;;;;;21.30;4.57;;;;;;;;;;4973715;28;20038;-89
2022/06/11 08:24:11;;;;;;;15.57;4.55;;;;;;;;;;4985267;28;20086;-89
2022/06/11 08:26:37;;;;;;;19.38;3.55;;;;;;;;;;4964870;28;20027;-88
2022/06/11 08:29:04;;;;;;;28.25;4.50;;;;;;;;;;4973660;28;20026;-88
2022/06/11 08:31:30;;;;;;;16.38;3.97;;;;;;;;;;4982345;28;20027;-89
2022/06/11 08:33:56;;;;;;;18.85;4.43;;;;;;;;;;4966627;28;20030;-89
2022/06/11 08:36:22;;;;;;;19.23;4.55;;;;;;;;;;4975144;28;20035;-89
2022/06/11 08:38:48;;;;;;;17.60;3.40;;;;;;;;;;4972388;28;20034;-89
2022/06/11 08:41:16;;;;;;;20.10;3.95;;;;;;;;;;4987884;28;20081;-89
2022/06/11 08:43:44;;;;;;;19.23;4.10;;;;;;;;;;4969454;28;20092;-89
2022/06/11 08:46:13;;;;;;;23.33;4.40;;;;;;;;;;4971532;28;20448;-89
2022/06/11 08:48:39;;;;;;;20.42;4.10;;;;;;;;;;4983244;28;20042;-89
2022/06/11 08:51:20;;;;;;;29.33;5.07;;;;;;;;;;4971083;28;20035;-89
2022/06/11 08:53:47;;;;;;;20.17;4.57;;;;;;;;;;4965473;28;20046;-89
2022/06/11 08:56:19;;;;;;;21.42;4.45;;;;;;;;;;4977612;28;20034;-89
2022/06/11 08:59:00;;;;;;;23.15;4.93;;;;;;;;;;4972343;28;20050;-92
2022/06/11 09:01:26;;;;;;;29.05;4.65;;;;;;;;;;4981823;28;20035;-93
2022/06/11 09:04:08;;;;;;;22.67;5.13;;;;;;;;;;4970069;28;20037;-92
2022/06/11 09:06:33;;;;;;;15.57;4.15;;;;;;;;;;4973418;28;20069;-91
2022/06/11 09:09:09;;;;;;;22.08;4.32;;;;;;;;;;4971577;28;20078;-92
2022/06/11 09:11:50;;;;;;;18.98;4.20;;;;;;;;;;4964739;28;20664;-93
2022/06/11 09:14:17;;;;;;;13.80;3.78;;;;;;;;;;4986988;28;20027;-92
2022/06/11 09:16:49;;;;;;;24.38;4.45;;;;;;;;;;4968819;28;20092;-91
2022/06/11 09:19:21;;;;;;;20.85;4.38;;;;;;;;;;4967127;28;20100;-93
2022/06/11 09:21:47;;;;;;;14.55;4.10;;;;;;;;;;4973903;28;20560;-92
2022/06/11 09:24:36;;;;;;;22.88;4.00;;;;;;;;;;4967887;28;20027;-92
2022/06/11 09:27:26;;;;;;;13.05;3.47;;;;;;;;;;4957774;28;20042;-92
2022/06/11 09:30:02;;;;;;;15.32;3.42;;;;;;;;;;4962680;28;20135;-93
2022/06/11 09:32:30;;;;;;;15.27;3.47;;;;;;;;;;4973242;28;20057;-94
2022/06/11 09:35:05;;;;;;;13.52;3.00;;;;;;;;;;4992311;28;20033;-92
2022/06/11 09:37:41;;;;;;;14.20;3.60;;;;;;;;;;4984639;28;20045;-92
2022/06/11 09:40:19;;;;;;;20.90;4.65;;;;;;;;;;4970589;28;20069;-92
2022/06/11 09:42:54;;;;;;;11.38;3.03;;;;;;;;;;4971080;28;20046;-93
2022/06/11 09:45:26;;;;;;;22.08;3.65;;;;;;;;;;4972233;28;20030;-93
2022/06/11 09:47:55;;;;;;;18.30;4.20;;;;;;;;;;4969281;28;20026;-93
2022/06/11 09:50:34;;;;;;;16.13;3.75;;;;;;;;;;4973112;28;20030;-93
2022/06/11 09:53:03;;;;;;;15.73;3.92;;;;;;;;;;4972239;28;20072;-93
2022/06/11 09:55:32;;;;;;;14.45;3.65;;;;;;;;;;4982695;28;20050;-93
2022/06/11 09:58:05;;;;;;;15.52;3.55;;;;;;;;;;4971649;28;20105;-93
2022/06/11 10:00:34;;;;;;;15.27;2.85;;;;;;;;;;4962977;28;20031;-93
2022/06/11 10:03:31;;;;;;;14.48;2.58;;;;;;;;;;4962857;28;20153;-93
2022/06/11 10:06:04;;;;;;;10.95;2.08;;;;;;;;;;4968429;28;20138;-93
2022/06/11 10:08:36;;;;;;;14.38;3.08;;;;;;;;;;4965342;28;20429;-93
2022/06/11 10:11:04;;;;;;;8.13;2.60;;;;;;;;;;4976876;28;20041;-93
2022/06/11 10:13:37;;;;;;;11.32;2.72;;;;;;;;;;4972231;28;20841;-93
2022/06/11 10:16:08;;;;;;;11.00;2.55;;;;;;;;;;4966602;28;20031;-92
2022/06/11 10:18:35;;;;;;;8.25;2.90;;;;;;;;;;4974899;28;20544;-92
2022/06/11 10:21:07;;;;;;;15.30;2.47;;;;;;;;;;4967141;28;20108;-93
2022/06/11 10:23:36;;;;;;;11.70;2.75;;;;;;;;;;4969457;28;20485;-93
2022/06/11 10:26:10;;;;;;;14.52;3.90;;;;;;;;;;4973065;28;20037;-93
2022/06/11 10:28:39;;;;;;;12.98;3.63;;;;;;;;;;4969482;28;20038;-93
2022/06/11 10:31:33;;;;;;;9.45;2.63;;;;;;;;;;4975567;28;20464;-94
2022/06/11 10:34:15;;;;;;;12.88;2.80;;;;;;;;;;4973849;28;20139;-93
2022/06/11 10:36:53;;;;;;;11.30;3.08;;;;;;;;;;4966489;28;20053;-93
2022/06/11 10:39:19;;;;;;;15.65;3.13;;;;;;;;;;4967471;28;20479;-93
2022/06/11 10:41:55;;;;;;;13.95;2.97;;;;;;;;;;4965800;28;20493;-93
2022/06/11 10:44:41;;;;;;;15.23;4.00;;;;;;;;;;4965490;28;20030;-92
2022/06/11 10:47:19;;;;;;;11.65;2.75;;;;;;;;;;4968664;28;20042;-92
2022/06/11 10:49:46;;;;;;;16.00;3.30;;;;;;;;;;4963983;28;20093;-92
2022/06/11 10:52:21;;;;;;;8.57;2.90;;;;;;;;;;4973846;28;20593;-92
2022/06/11 10:54:53;;;;;;;15.63;3.28;;;;;;;;;;4970349;28;20510;-92
2022/06/11 10:57:29;;;;;;;15.38;3.60;;;;;;;;;;4967088;28;20570;-92
2022/06/11 11:00:04;;;;;;;17.27;3.60;;;;;;;;;;4989654;28;20026;-92
2022/06/11 11:02:40;;;;;;;13.85;4.20;;;;;;;;;;4964493;28;20034;-93
2022/06/11 11:05:08;;;;;;;13.85;3.20;;;;;;;;;;4965742;28;20454;-93
2022/06/11 11:08:03;;;;;;;15.25;3.30;;;;;;;;;;4971038;28;20299;-94
2022/06/11 11:10:36;;;;;;;11.80;2.40;;;;;;;;;;4970757;28;20073;-94
2022/06/11 11:13:05;;;;;;;8.32;2.40;;;;;;;;;;4968304;28;20114;-94
2022/06/11 11:15:38;;;;;;;16.20;3.95;;;;;;;;;;4973642;28;20065;-94
2022/06/11 11:18:10;;;;;;;12.70;3.50;;;;;;;;;;4969453;28;20379;-94
2022/06/11 11:20:39;;;;;;;14.73;2.80;;;;;;;;;;4970118;28;20030;-93
2022/06/11 11:23:11;;;;;;;15.00;3.10;;;;;;;;;;4974517;28;20066;-93
2022/06/11 11:25:39;;;;;;;12.27;3.22;;;;;;;;;;4967086;28;20069;-92
2022/06/11 11:28:07;;;;;;;9.50;2.13;;;;;;;;;;4972482;28;20034;-93
2022/06/11 11:30:39;;;;;;;16.90;3.22;;;;;;;;;;4967569;28;20030;-94
2022/06/11 11:33:13;;;;;;;10.27;2.60;;;;;;;;;;4973582;28;20034;-93
2022/06/11 11:35:40;;;;;;;14.48;2.95;;;;;;;;;;4980882;28;20502;-94
2022/06/11 11:38:22;;;;;;;18.25;3.38;;;;;;;;;;4967155;28;20084;-93
2022/06/11 11:40:48;;;;;;;9.90;3.03;;;;;;;;;;4968211;28;20046;-94
2022/06/11 11:43:15;;;;;;;13.95;3.05;;;;;;;;;;4968089;28;20105;-94
2022/06/11 11:45:41;;;;;;;13.70;2.92;;;;;;;;;;4967604;28;20026;-93
2022/06/11 11:48:12;;;;;;;14.60;2.28;;;;;;;;;;4965853;28;20014;-93
2022/06/11 11:50:40;;;;;;;15.98;3.15;;;;;;;;;;4967643;28;20219;-94
2022/06/11 11:53:12;;;;;;;10.05;2.47;;;;;;;;;;4985180;28;20077;-93
2022/06/11 11:55:41;;;;;;;10.02;2.33;;;;;;;;;;4961819;28;20051;-94
2022/06/11 11:58:15;;;;;;;12.07;2.75;;;;;;;;;;4973515;28;20061;-94
2022/06/11 12:01:10;;;;;;;16.52;2.70;;;;;;;;;;4969721;28;20038;-93
2022/06/11 12:04:06;;;;;;;13.23;2.97;;;;;;;;;;4965227;28;20069;-92
2022/06/11 12:06:35;;;;;;;12.77;3.28;;;;;;;;;;4958800;28;20038;-95
2022/06/11 12:09:02;;;;;;;14.27;2.97;;;;;;;;;;4976504;28;20536;-93
2022/06/11 12:11:28;;;;;;;36.35;4.50;;;;;;;;;;4968302;28;20038;-93
2022/06/11 12:13:59;;;;;;;8.45;2.30;;;;;;;;;;4972841;28;20037;-94
2022/06/11 12:16:25;;;;;;;24.95;3.28;;;;;;;;;;4986278;28;20023;-94
2022/06/11 12:18:57;;;;;;;15.07;2.75;;;;;;;;;;4969709;28;20470;-94
2022/06/11 12:21:25;;;;;;;17.90;2.40;;;;;;;;;;4970450;28;20043;-95
2022/06/11 12:24:03;;;;;;;12.32;2.50;;;;;;;;;;4974360;28;20073;-94
2022/06/11 12:26:31;;;;;;;10.32;2.95;;;;;;;;;;4983485;28;20505;-94
2022/06/11 12:29:15;;;;;;;12.32;2.70;;;;;;;;;;4967910;28;20039;-95
2022/06/11 12:31:42;;;;;;;9.15;3.60;;;;;;;;;;4966631;28;20114;-94
2022/06/11 12:34:18;;;;;;;12.10;2.47;;;;;;;;;;4974299;28;20411;-94
2022/06/11 12:36:56;;;;;;;13.07;3.90;;;;;;;;;;4970410;28;20023;-95
2022/06/11 12:39:31;;;;;;;11.65;2.70;;;;;;;;;;4966178;28;20584;-95
2022/06/11 12:42:00;;;;;;;6.50;2.33;;;;;;;;;;4963912;28;20042;-94
2022/06/11 12:44:26;;;;;;;7.72;2.35;;;;;;;;;;4968160;28;20022;-96
2022/06/11 12:46:58;;;;;;;11.85;2.70;;;;;;;;;;4975435;28;20070;-94
2022/06/11 12:49:30;;;;;;;8.82;2.33;;;;;;;;;;4972804;28;20030;-94
2022/06/11 12:52:16;;;;;;;10.93;2.20;;;;;;;;;;4974201;28;20520;-96
2022/06/11 12:54:57;;;;;;;6.93;2.10;;;;;;;;;;4965454;28;20055;-94
2022/06/11 12:57:31;;;;;;;9.27;2.03;;;;;;;;;;4971241;28;20033;-95
2022/06/11 13:00:03;;;;;;;9.32;2.28;;;;;;;;;;4973401;28;20063;-93
2022/06/11 13:02:33;;;;;;;7.25;1.95;;;;;;;;;;4975980;28;20498;-94
2022/06/11 13:05:18;;;;;;;10.77;2.55;;;;;;;;;;4974014;28;20026;-95
2022/06/11 13:07:44;;;;;;;8.57;2.30;;;;;;;;;;4995171;28;20026;-95
2022/06/11 13:10:18;;;;;;;13.20;2.58;;;;;;;;;;4988854;28;20065;-95
2022/06/11 13:12:47;;;;;;;6.28;2.22;;;;;;;;;;4989761;28;20026;-95
2022/06/11 13:15:13;;;;;;;14.18;2.40;;;;;;;;;;4975028;28;20038;-94
2022/06/11 13:17:58;;;;;;;7.63;2.17;;;;;;;;;;4979113;28;20034;-94
2022/06/11 13:20:36;;;;;;;11.93;2.28;;;;;;;;;;4989420;28;20037;-94
2022/06/11 13:23:13;;;;;;;14.45;2.38;;;;;;;;;;4973819;28;20031;-95
2022/06/11 13:25:57;;;;;;;11.73;2.50;;;;;;;;;;4992458;28;20064;-94
2022/06/11 13:28:23;;;;;;;13.23;2.47;;;;;;;;;;4971877;28;20065;-94
2022/06/11 13:31:09;;;;;;;10.05;2.53;;;;;;;;;;4965861;28;20034;-94
2022/06/11 13:33:50;;;;;;;13.20;2.30;;;;;;;;;;4970648;28;20030;-94
2022/06/11 13:36:35;;;;;;;10.45;2.83;;;;;;;;;;4992988;28;20049;-94
2022/06/11 13:39:01;;;;;;;17.00;2.80;;;;;;;;;;4985772;28;20030;-93
2022/06/11 13:41:46;;;;;;;10.82;2.50;;;;;;;;;;4984565;28;20151;-92
2022/06/11 13:44:39;;;;;;;10.73;2.30;;;;;;;;;;4994457;28;20084;-91
2022/06/11 13:47:24;;;;;;;11.02;2.78;;;;;;;;;;4991619;28;20031;-93
2022/06/11 13:50:00;;;;;;;11.00;2.58;;;;;;;;;;4980725;28;20040;-95
2022/06/11 13:55:29;;;;;;;11.68;2.83;;;;;;;;;;4982423;28;20061;-93
2022/06/11 13:57:58;;;;;;;9.55;2.83;;;;;;;;;;4974569;28;20462;-92
2022/06/11 14:00:33;;;;;;;9.73;3.05;;;;;;;;;;4971551;28;20053;-93
2022/06/11 14:03:08;;;;;;;7.45;2.47;;;;;;;;;;4983636;28;20045;-92
2022/06/11 14:05:36;;;;;;;6.90;3.15;;;;;;;;;;4971836;28;20093;-94
2022/06/11 14:08:03;;;;;;;8.80;2.50;;;;;;;;;;4972229;28;20046;-94
2022/06/11 14:10:29;;;;;;;12.05;3.00;;;;;;;;;;4984504;28;20469;-92
2022/06/11 14:12:57;;;;;;;10.73;2.25;;;;;;;;;;4975186;28;20026;-94
2022/06/11 14:15:29;;;;;;;19.60;3.78;;;;;;;;;;4968589;28;20041;-92
2022/06/11 14:17:55;;;;;;;11.57;2.55;;;;;;;;;;4969035;28;20383;-93
2022/06/11 14:20:24;;;;;;;13.25;3.85;;;;;;;;;;4981558;28;20061;-92
2022/06/11 14:22:53;;;;;;;9.88;3.05;;;;;;;;;;4970973;28;20521;-93
2022/06/11 14:25:37;;;;;;;8.98;2.80;;;;;;;;;;4978373;28;20502;-93
2022/06/11 14:28:16;;;;;;;18.10;3.08;;;;;;;;;;4966649;28;20045;-93
2022/06/11 14:30:45;;;;;;;10.48;2.60;;;;;;;;;;4962868;28;20514;-92
2022/06/11 14:33:15;;;;;;;16.55;3.13;;;;;;;;;;4971439;28;20104;-92
2022/06/11 14:35:50;;;;;;;13.90;2.88;;;;;;;;;;4968176;28;20046;-93
2022/06/11 14:38:16;;;;;;;;;;;;;;;;;;4969524;28;20037;-93
2022/06/11 14:40:42;;;;;;;;;;;;;;;;;;4971310;28;19905;-94
2022/06/11 14:43:09;;;;;;;;;;;;;;;;;;4971941;28;19965;-92
2022/06/11 14:45:38;;;;;;;17.00;3.17;;;;;;;;;;4971124;28;19937;-93
2022/06/11 14:48:24;;;;;;;14.95;3.60;;;;;;;;;;4968923;28;20030;-93
2022/06/11 14:51:06;;;;;;;8.27;2.70;;;;;;;;;;4971233;28;20038;-93
2022/06/11 14:53:38;;;;;;;16.65;3.58;;;;;;;;;;4970272;28;20109;-93
2022/06/11 14:56:13;;;;;;;13.00;3.10;;;;;;;;;;4968347;28;20136;-93